createdAt,value
2019-03-16T00:00:51.060Z,98777.41
2019-03-16T00:03:17.777Z,98778.65
2019-03-16T00:05:44.558Z,98763.63
2019-03-16T00:08:11.366Z,98787.55
2019-03-16T00:10:38.140Z,98771.92
2019-03-16T00:13:04.944Z,98761.82
2019-03-16T00:15:31.753Z,98777.97
2019-03-16T00:17:58.540Z,98776.61
2019-03-16T00:20:25.313Z,98775.89
2019-03-16T00:22:52.022Z,98768.75
2019-03-16T00:25:18.802Z,98766.58
2019-03-16T00:27:45.606Z,98781.24
2019-03-16T00:30:12.508Z,98788.71
2019-03-16T00:32:39.845Z,98779.89
2019-03-16T00:35:06.639Z,98783.76
2019-03-16T00:37:34.055Z,98792.31
2019-03-16T00:40:00.753Z,98789.05
2019-03-16T00:42:27.521Z,98779.92
2019-03-16T00:44:54.341Z,98789.90
2019-03-16T00:47:22.476Z,98806.23
2019-03-16T00:49:49.152Z,98819.37
2019-03-16T00:52:16.271Z,98823.88
2019-03-16T00:54:42.964Z,98835.06
2019-03-16T00:57:09.634Z,98836.22
2019-03-16T00:59:36.320Z,98833.75
2019-03-16T01:02:03.311Z,98824.30
2019-03-16T01:04:29.992Z,98824.30
2019-03-16T01:06:56.873Z,98816.20
2019-03-16T01:09:23.664Z,98836.45
2019-03-16T01:11:50.344Z,98833.13
2019-03-16T01:14:17.027Z,98827.52
2019-03-16T01:16:43.726Z,98800.93
2019-03-16T01:19:10.312Z,98804.73
2019-03-16T01:21:37.016Z,98799.25
2019-03-16T01:24:03.812Z,98810.05
2019-03-16T01:26:30.598Z,98814.97
2019-03-16T01:28:57.291Z,98819.06
2019-03-16T01:31:23.981Z,98830.86
2019-03-16T01:33:51.318Z,98821.56
2019-03-16T01:36:17.919Z,98824.55
2019-03-16T01:38:44.734Z,98808.09
2019-03-16T01:41:11.398Z,98820.84
2019-03-16T01:43:37.986Z,98819.58
2019-03-16T01:46:04.779Z,98821.00
2019-03-16T01:48:31.383Z,98821.90
2019-03-16T01:50:58.081Z,98825.50
2019-03-16T01:53:24.822Z,98823.55
2019-03-16T01:55:51.515Z,98830.81
2019-03-16T01:58:18.306Z,98840.39
2019-03-16T02:00:45.304Z,98833.73
2019-03-16T02:03:12.316Z,98844.75
2019-03-16T02:05:39.106Z,98841.96
2019-03-16T02:08:05.906Z,98843.61
2019-03-16T02:10:32.493Z,98838.36
2019-03-16T02:12:59.194Z,98847.37
2019-03-16T02:15:25.888Z,98846.96
2019-03-16T02:17:52.595Z,98855.91
2019-03-16T02:20:19.279Z,98850.26
2019-03-16T02:22:46.067Z,98834.21
2019-03-16T02:25:13.194Z,98836.30
2019-03-16T02:27:40.011Z,98826.87
2019-03-16T02:30:07.503Z,98825.81
2019-03-16T02:32:34.599Z,98826.77
2019-03-16T02:35:01.309Z,98833.59
2019-03-16T02:37:27.997Z,98796.98
2019-03-16T02:39:54.629Z,98824.27
2019-03-16T02:42:21.301Z,98828.05
2019-03-16T02:44:47.890Z,98832.80
2019-03-16T02:47:14.578Z,98839.05
2019-03-16T02:49:41.273Z,98844.20
2019-03-16T02:52:08.353Z,98842.11
2019-03-16T02:54:35.167Z,98846.21
2019-03-16T02:57:01.945Z,98849.09
2019-03-16T02:59:28.930Z,98862.59
2019-03-16T03:01:55.611Z,98859.44
2019-03-16T03:04:22.653Z,98869.96
2019-03-16T03:06:49.797Z,98880.03
2019-03-16T03:09:16.611Z,98868.31
2019-03-16T03:11:43.385Z,98889.88
2019-03-16T03:14:10.188Z,98893.03
2019-03-16T03:16:36.957Z,98894.56
2019-03-16T03:19:03.778Z,98885.89
2019-03-16T03:21:30.858Z,98896.56
2019-03-16T03:23:57.449Z,98877.96
2019-03-16T03:26:24.409Z,98899.70
2019-03-16T03:28:51.005Z,98890.82
2019-03-16T03:31:17.679Z,98893.84
2019-03-16T03:33:58.633Z,98895.35
2019-03-16T03:36:12.753Z,98902.77
2019-03-16T03:38:39.471Z,98909.09
2019-03-16T03:41:06.355Z,98921.84
2019-03-16T03:43:33.155Z,98920.45
2019-03-16T03:45:59.888Z,98926.05
2019-03-16T03:48:26.699Z,98784.66
2019-03-16T03:50:53.484Z,98919.50
2019-03-16T03:53:20.187Z,98911.31
2019-03-16T03:55:46.959Z,98914.59
2019-03-16T03:58:13.770Z,98912.16
2019-03-16T04:00:40.652Z,98899.62
2019-03-16T04:03:07.762Z,98903.22
2019-03-16T04:05:34.460Z,98902.89
2019-03-16T04:08:01.257Z,98917.17
2019-03-16T04:10:27.935Z,98899.34
2019-03-16T04:12:54.652Z,98901.61
2019-03-16T04:15:21.434Z,98912.94
2019-03-16T04:17:48.244Z,98914.92
2019-03-16T04:20:15.441Z,98912.72
2019-03-16T04:22:42.103Z,98912.16
2019-03-16T04:25:08.929Z,98901.86
2019-03-16T04:27:35.732Z,98907.78
2019-03-16T04:30:02.775Z,98912.73
2019-03-16T04:32:30.056Z,98920.78
2019-03-16T04:34:56.767Z,98917.27
2019-03-16T04:37:23.349Z,98918.59
2019-03-16T04:39:49.957Z,98917.73
2019-03-16T04:42:16.749Z,98918.09
2019-03-16T04:44:43.439Z,98919.34
2019-03-16T04:47:10.147Z,98917.63
2019-03-16T04:49:36.780Z,98910.74
2019-03-16T04:52:03.555Z,98917.17
2019-03-16T04:54:30.364Z,98916.58
2019-03-16T04:56:57.303Z,98926.41
2019-03-16T04:59:23.924Z,98922.52
2019-03-16T05:01:50.678Z,98919.73
2019-03-16T05:04:17.239Z,98916.58
2019-03-16T05:06:44.029Z,98930.70
2019-03-16T05:09:10.634Z,98941.63
2019-03-16T05:11:37.417Z,98938.55
2019-03-16T05:14:04.231Z,98946.98
2019-03-16T05:16:31.332Z,98937.05
2019-03-16T05:18:57.939Z,98943.25
2019-03-16T05:21:24.532Z,98946.08
2019-03-16T05:23:51.371Z,98957.54
2019-03-16T05:26:18.106Z,98957.11
2019-03-16T05:28:44.892Z,98946.94
2019-03-16T05:31:11.598Z,98959.69
2019-03-16T05:33:38.381Z,98962.14
2019-03-16T05:36:05.100Z,98960.65
2019-03-16T05:38:32.095Z,98976.91
2019-03-16T05:40:58.795Z,98983.56
2019-03-16T05:43:25.387Z,98984.64
2019-03-16T05:45:51.998Z,98983.94
2019-03-16T05:48:18.981Z,98977.73
2019-03-16T05:50:45.788Z,98962.05
2019-03-16T05:53:12.478Z,98982.75
2019-03-16T05:55:39.209Z,98978.37
2019-03-16T05:58:06.013Z,98988.89
2019-03-16T06:00:32.811Z,99003.94
2019-03-16T06:02:59.465Z,98993.30
2019-03-16T06:05:26.205Z,98993.30
2019-03-16T06:07:52.791Z,99008.72
2019-03-16T06:10:19.610Z,98839.08
2019-03-16T06:12:46.768Z,99001.66
2019-03-16T06:15:14.057Z,99007.27
2019-03-16T06:17:40.949Z,99003.63
2019-03-16T06:20:08.529Z,99011.34
2019-03-16T06:22:35.203Z,99011.72
2019-03-16T06:25:01.873Z,99001.09
2019-03-16T06:27:28.918Z,99010.44
2019-03-16T06:29:56.088Z,99009.14
2019-03-16T06:32:22.769Z,99007.75
2019-03-16T06:34:49.373Z,99020.22
2019-03-16T06:37:15.972Z,99023.50
2019-03-16T06:39:42.737Z,99002.13
2019-03-16T06:42:09.591Z,99050.94
2019-03-16T06:44:36.451Z,99008.89
2019-03-16T06:47:03.249Z,99018.53
2019-03-16T06:49:30.068Z,99014.97
2019-03-16T06:51:56.899Z,99013.00
2019-03-16T06:54:23.623Z,99018.08
2019-03-16T06:56:50.494Z,99018.99
2019-03-16T06:59:17.972Z,99018.87
2019-03-16T07:01:44.593Z,98999.98
2019-03-16T07:04:11.785Z,99053.54
2019-03-16T07:06:38.487Z,98995.02
2019-03-16T07:09:06.987Z,98989.42
2019-03-16T07:11:33.742Z,98994.58
2019-03-16T07:14:00.428Z,98989.51
2019-03-16T07:16:27.240Z,98988.91
2019-03-16T07:18:58.682Z,98992.62
2019-03-16T07:21:22.756Z,98992.62
2019-03-16T07:23:49.435Z,99000.66
2019-03-16T07:26:16.368Z,98997.58
2019-03-16T07:28:43.192Z,98987.99
2019-03-16T07:31:09.810Z,98988.84
2019-03-16T07:33:36.641Z,98983.37
2019-03-16T07:36:03.887Z,99015.05
2019-03-16T07:38:30.674Z,98993.34
2019-03-16T07:40:57.608Z,98997.66
2019-03-16T07:43:24.396Z,98837.06
2019-03-16T07:45:51.113Z,98655.89
2019-03-16T07:48:17.717Z,98991.39
2019-03-16T07:50:44.443Z,98914.94
2019-03-16T07:53:11.150Z,99022.16
2019-03-16T07:55:37.876Z,98981.64
2019-03-16T07:58:04.491Z,99019.97
2019-03-16T08:00:31.277Z,98983.62
2019-03-16T08:02:57.971Z,98974.26
2019-03-16T08:05:24.631Z,98977.55
2019-03-16T08:07:51.457Z,98977.55
2019-03-16T08:10:18.135Z,98977.36
2019-03-16T08:12:44.865Z,98961.53
2019-03-16T08:15:11.663Z,98955.54
2019-03-16T08:17:38.569Z,98955.54
2019-03-16T08:20:05.395Z,98958.59
2019-03-16T08:22:32.001Z,98950.30
2019-03-16T08:24:58.682Z,98947.28
2019-03-16T08:27:25.382Z,98946.33
2019-03-16T08:29:52.159Z,98947.03
2019-03-16T08:32:18.972Z,98940.47
2019-03-16T08:34:45.668Z,98944.81
2019-03-16T08:37:12.273Z,98929.52
2019-03-16T08:39:38.954Z,98926.59
2019-03-16T08:42:05.762Z,98922.50
2019-03-16T08:44:32.475Z,98917.14
2019-03-16T08:46:59.539Z,98922.04
2019-03-16T08:49:26.217Z,98904.16
2019-03-16T08:51:52.920Z,98910.25
2019-03-16T08:54:19.553Z,98908.81
2019-03-16T08:56:46.234Z,98899.13
2019-03-16T08:59:12.833Z,98899.13
2019-03-16T09:01:40.863Z,98903.23
2019-03-16T09:04:07.538Z,98899.72
2019-03-16T09:06:34.172Z,98893.66
2019-03-16T09:09:00.770Z,98894.78
2019-03-16T09:11:27.489Z,98704.56
2019-03-16T09:13:54.079Z,98880.55
2019-03-16T09:16:20.756Z,98871.78
2019-03-16T09:18:47.562Z,98869.78
2019-03-16T09:21:14.365Z,98858.39
2019-03-16T09:23:41.556Z,98860.73
2019-03-16T09:26:08.743Z,98852.42
2019-03-16T09:28:35.361Z,98840.77
2019-03-16T09:31:02.778Z,98836.50
2019-03-16T09:33:29.796Z,98831.37
2019-03-16T09:35:56.482Z,98829.81
2019-03-16T09:38:23.292Z,98833.19
2019-03-16T09:40:50.069Z,98823.36
2019-03-16T09:43:16.797Z,98813.66
2019-03-16T09:45:43.501Z,98823.36
2019-03-16T09:48:10.198Z,98821.25
2019-03-16T09:50:37.016Z,98827.00
2019-03-16T09:53:03.804Z,98819.45
2019-03-16T09:55:30.608Z,98811.00
2019-03-16T09:57:57.413Z,98804.38
2019-03-16T10:00:24.204Z,98802.24
2019-03-16T10:02:50.904Z,98800.56
2019-03-16T10:05:17.670Z,98790.10
2019-03-16T10:07:44.401Z,98788.77
2019-03-16T10:10:11.237Z,98785.39
2019-03-16T10:12:38.026Z,98777.74
2019-03-16T10:15:05.306Z,98776.85
2019-03-16T10:17:32.682Z,98770.45
2019-03-16T10:19:59.460Z,98761.92
2019-03-16T10:22:26.184Z,98757.09
2019-03-16T10:24:52.992Z,98751.77
2019-03-16T10:27:19.590Z,98751.94
2019-03-16T10:29:46.180Z,98750.98
2019-03-16T10:32:13.240Z,98737.63
2019-03-16T10:34:40.097Z,98738.11
2019-03-16T10:37:06.880Z,98733.60
2019-03-16T10:39:33.883Z,98732.33
2019-03-16T10:42:00.568Z,98724.12
2019-03-16T10:44:27.282Z,98719.11
2019-03-16T10:46:53.849Z,98711.60
2019-03-16T10:49:20.441Z,98709.00
2019-03-16T10:51:47.208Z,98706.88
2019-03-16T10:54:13.828Z,98713.17
2019-03-16T10:56:40.509Z,98712.97
2019-03-16T10:59:07.110Z,98703.59
2019-03-16T11:01:33.788Z,98689.80
2019-03-16T11:04:00.358Z,98695.44
2019-03-16T11:06:27.614Z,98698.23
2019-03-16T11:08:54.214Z,98683.98
2019-03-16T11:11:21.003Z,98691.56
2019-03-16T11:13:47.796Z,98670.04
2019-03-16T11:16:14.555Z,98675.59
2019-03-16T11:18:41.339Z,98651.80
2019-03-16T11:21:07.951Z,98676.23
2019-03-16T11:23:34.523Z,98655.70
2019-03-16T11:26:01.202Z,98660.13
2019-03-16T11:28:28.354Z,98661.85
2019-03-16T11:30:55.143Z,98554.03
2019-03-16T11:33:22.652Z,98670.09
2019-03-16T11:35:49.777Z,98643.96
2019-03-16T11:38:16.623Z,98655.04
2019-03-16T11:40:46.492Z,98635.38
2019-03-16T11:43:13.198Z,98611.05
2019-03-16T11:45:40.340Z,98630.19
2019-03-16T11:48:07.071Z,98651.01
2019-03-16T11:50:34.068Z,98647.08
2019-03-16T11:53:00.670Z,98637.61
2019-03-16T11:55:27.366Z,98636.25
2019-03-16T11:57:54.439Z,98646.52
2019-03-16T12:00:21.239Z,98631.23
2019-03-16T12:02:52.951Z,98642.38
2019-03-16T12:05:22.922Z,98487.23
2019-03-16T12:07:49.722Z,98630.77
2019-03-16T12:10:16.582Z,98641.16
2019-03-16T12:12:43.363Z,98654.22
2019-03-16T12:15:10.186Z,98615.17
2019-03-16T12:17:36.948Z,98626.83
2019-03-16T12:20:05.390Z,98627.09
2019-03-16T12:22:32.189Z,98638.22
2019-03-16T12:25:00.390Z,98605.15
2019-03-16T12:27:27.410Z,98628.91
2019-03-16T12:29:55.766Z,98631.55
2019-03-16T12:32:22.888Z,98645.26
2019-03-16T12:34:49.701Z,98612.80
2019-03-16T12:37:16.381Z,98622.03
2019-03-16T12:39:44.849Z,98614.05
2019-03-16T12:42:11.551Z,98592.67
2019-03-16T12:44:38.356Z,98605.35
2019-03-16T12:47:07.243Z,98615.81
2019-03-16T12:49:33.951Z,98613.63
2019-03-16T12:52:00.644Z,98608.92
2019-03-16T12:54:27.647Z,98595.76
2019-03-16T12:56:54.331Z,98600.44
2019-03-16T12:59:21.009Z,98569.82
2019-03-16T13:01:47.688Z,98601.69
2019-03-16T13:04:14.271Z,98588.50
2019-03-16T13:06:41.055Z,98594.38
2019-03-16T13:09:07.849Z,98536.19
2019-03-16T13:11:34.542Z,98568.78
2019-03-16T13:14:01.253Z,98514.10
2019-03-16T13:16:27.928Z,98568.03
2019-03-16T13:18:54.603Z,98568.06
2019-03-16T13:21:21.190Z,98563.08
2019-03-16T13:23:47.771Z,98532.90
2019-03-16T13:26:14.439Z,98537.32
2019-03-16T13:28:41.023Z,98567.94
2019-03-16T13:31:07.827Z,98534.92
2019-03-16T13:33:34.412Z,98555.67
2019-03-16T13:36:01.105Z,98551.57
2019-03-16T13:38:27.783Z,98559.19
2019-03-16T13:40:54.586Z,98533.27
2019-03-16T13:43:21.402Z,98562.91
2019-03-16T13:45:48.255Z,98549.99
2019-03-16T13:48:15.037Z,98526.11
2019-03-16T13:50:41.744Z,98520.32
2019-03-16T13:53:08.874Z,98536.84
2019-03-16T13:55:35.597Z,98520.31
2019-03-16T13:58:02.377Z,98555.97
2019-03-16T14:00:29.178Z,98562.28
2019-03-16T14:02:56.246Z,98544.27
2019-03-16T14:05:23.046Z,98548.45
2019-03-16T14:07:49.722Z,98552.42
2019-03-16T14:10:16.717Z,98545.37
2019-03-16T14:12:43.404Z,98559.79
2019-03-16T14:15:10.182Z,98506.83
2019-03-16T14:17:37.208Z,98550.22
2019-03-16T14:20:05.251Z,98508.98
2019-03-16T14:22:31.820Z,98551.48
2019-03-16T14:24:58.520Z,98546.67
2019-03-16T14:27:25.095Z,98531.64
2019-03-16T14:29:51.795Z,98540.70
2019-03-16T14:32:18.824Z,98541.11
2019-03-16T14:34:46.206Z,98561.69
2019-03-16T14:37:12.990Z,98529.52
2019-03-16T14:39:39.792Z,98536.21
2019-03-16T14:42:07.754Z,98513.34
2019-03-16T14:44:34.386Z,98508.66
2019-03-16T14:47:00.973Z,98517.86
2019-03-16T14:49:27.638Z,98514.50
2019-03-16T14:51:54.434Z,98514.64
2019-03-16T14:54:21.039Z,98491.16
2019-03-16T14:56:47.636Z,98524.02
2019-03-16T14:59:14.332Z,98479.78
2019-03-16T15:01:40.948Z,98537.58
2019-03-16T15:04:07.616Z,98477.17
2019-03-16T15:06:34.319Z,98533.84
2019-03-16T15:09:01.382Z,98523.80
2019-03-16T15:11:28.088Z,98513.13
2019-03-16T15:13:54.667Z,98427.93
2019-03-16T15:16:21.815Z,98505.61
2019-03-16T15:18:48.512Z,98282.50
2019-03-16T15:21:15.273Z,98524.38
2019-03-16T15:23:41.974Z,98528.41
2019-03-16T15:26:08.792Z,98513.85
2019-03-16T15:28:35.577Z,98514.17
2019-03-16T15:31:02.364Z,98429.78
2019-03-16T15:33:29.146Z,98522.22
2019-03-16T15:35:55.742Z,98508.30
2019-03-16T15:38:22.422Z,98519.48
2019-03-16T15:40:49.118Z,98512.52
2019-03-16T15:43:15.887Z,98500.75
2019-03-16T15:45:42.585Z,98479.27
2019-03-16T15:48:09.254Z,98434.53
2019-03-16T15:50:36.397Z,98498.91
2019-03-16T15:53:03.551Z,98464.11
2019-03-16T15:55:30.263Z,98385.89
2019-03-16T15:58:07.539Z,98460.59
2019-03-16T16:00:26.470Z,98478.20
2019-03-16T16:02:53.240Z,98468.84
2019-03-16T16:05:20.064Z,98442.28
2019-03-16T16:07:46.731Z,98459.11
2019-03-16T16:10:13.545Z,98455.67
2019-03-16T16:12:40.232Z,98466.22
2019-03-16T16:15:07.037Z,98477.09
2019-03-16T16:17:33.953Z,98428.67
2019-03-16T16:20:00.541Z,98428.02
2019-03-16T16:22:27.239Z,98467.20
2019-03-16T16:24:53.947Z,98428.20
2019-03-16T16:27:22.919Z,98463.02
2019-03-16T16:29:51.089Z,98463.36
2019-03-16T16:32:18.278Z,98441.94
2019-03-16T16:34:45.088Z,98447.77
2019-03-16T16:37:11.747Z,98434.98
2019-03-16T16:39:38.570Z,98453.27
2019-03-16T16:42:05.361Z,98457.50
2019-03-16T16:44:33.259Z,98435.29
2019-03-16T16:47:00.020Z,98441.16
2019-03-16T16:49:26.597Z,98443.09
2019-03-16T16:51:53.391Z,98436.23
2019-03-16T16:54:19.988Z,98433.65
2019-03-16T16:56:47.184Z,98441.58
2019-03-16T16:59:13.755Z,98391.07
2019-03-16T17:01:40.552Z,98443.38
2019-03-16T17:04:07.231Z,98434.31
2019-03-16T17:06:33.917Z,98427.38
2019-03-16T17:09:00.586Z,98438.22
2019-03-16T17:11:27.280Z,98382.84
2019-03-16T17:13:53.950Z,98430.30
2019-03-16T17:16:20.846Z,98427.54
2019-03-16T17:18:47.527Z,98428.02
2019-03-16T17:21:14.103Z,98439.65
2019-03-16T17:23:40.798Z,98427.83
2019-03-16T17:26:07.472Z,98429.31
2019-03-16T17:28:34.261Z,98430.11
2019-03-16T17:31:03.230Z,98412.94
2019-03-16T17:33:29.930Z,98416.67
2019-03-16T17:35:56.507Z,98454.72
2019-03-16T17:38:23.456Z,98426.36
2019-03-16T17:40:50.134Z,98463.77
2019-03-16T17:43:16.969Z,98436.38
2019-03-16T17:45:43.777Z,98418.45
2019-03-16T17:48:10.467Z,98416.31
2019-03-16T17:50:37.504Z,98424.42
2019-03-16T17:53:04.304Z,98425.89
2019-03-16T17:55:31.014Z,98426.03
2019-03-16T17:57:57.693Z,98427.81
2019-03-16T18:00:24.472Z,98385.23
2019-03-16T18:02:52.493Z,98416.02
2019-03-16T18:05:19.748Z,98409.52
2019-03-16T18:07:46.430Z,98407.91
2019-03-16T18:10:13.213Z,98398.05
2019-03-16T18:12:40.090Z,98386.22
2019-03-16T18:15:08.213Z,98399.02
2019-03-16T18:17:34.916Z,98395.77
2019-03-16T18:20:01.684Z,98402.55
2019-03-16T18:22:29.049Z,98399.47
2019-03-16T18:24:55.613Z,98400.78
2019-03-16T18:27:22.402Z,98414.72
2019-03-16T18:29:48.962Z,98409.66
2019-03-16T18:32:15.655Z,98414.39
2019-03-16T18:34:42.333Z,98415.16
2019-03-16T18:37:09.107Z,98406.61
2019-03-16T18:39:35.695Z,98396.56
2019-03-16T18:42:02.399Z,98403.86
2019-03-16T18:44:29.079Z,98420.68
2019-03-16T18:46:55.746Z,98430.06
2019-03-16T18:49:22.465Z,98439.95
2019-03-16T18:51:49.148Z,98417.61
2019-03-16T18:54:15.871Z,98408.05
2019-03-16T18:56:42.675Z,98402.56
2019-03-16T18:59:09.438Z,98391.07
2019-03-16T19:01:36.057Z,98387.78
2019-03-16T19:04:03.011Z,98403.53
2019-03-16T19:06:29.681Z,98398.64
2019-03-16T19:08:56.285Z,98323.71
2019-03-16T19:11:23.624Z,98395.59
2019-03-16T19:13:50.332Z,98382.17
2019-03-16T19:16:17.112Z,98308.05
2019-03-16T19:18:43.719Z,98405.17
2019-03-16T19:21:10.301Z,98383.66
2019-03-16T19:23:36.993Z,98396.12
2019-03-16T19:26:03.779Z,98381.06
2019-03-16T19:28:30.501Z,98407.59
2019-03-16T19:30:57.187Z,98395.63
2019-03-16T19:33:23.897Z,98417.02
2019-03-16T19:35:50.577Z,98398.69
2019-03-16T19:38:17.380Z,98411.15
2019-03-16T19:40:44.082Z,98423.79
2019-03-16T19:43:10.784Z,98358.22
2019-03-16T19:45:37.481Z,98360.95
2019-03-16T19:48:04.274Z,98408.88
2019-03-16T19:50:30.953Z,98377.14
2019-03-16T19:52:57.622Z,98402.91
2019-03-16T19:55:24.441Z,98363.37
2019-03-16T19:57:51.114Z,98397.55
2019-03-16T20:00:18.244Z,98386.52
2019-03-16T20:02:51.077Z,98400.45
2019-03-16T20:05:16.474Z,98403.36
2019-03-16T20:07:43.680Z,98406.75
2019-03-16T20:10:11.594Z,98397.50
2019-03-16T20:12:38.755Z,98394.16
2019-03-16T20:15:05.512Z,98404.81
2019-03-16T20:17:32.327Z,98403.85
2019-03-16T20:19:59.130Z,98401.89
2019-03-16T20:22:25.938Z,98408.91
2019-03-16T20:24:52.636Z,98387.50
2019-03-16T20:27:19.327Z,98389.12
2019-03-16T20:29:46.054Z,98403.36
2019-03-16T20:32:12.649Z,98387.48
2019-03-16T20:34:39.367Z,98396.23
2019-03-16T20:37:06.145Z,98371.30
2019-03-16T20:39:32.831Z,98378.41
2019-03-16T20:41:59.609Z,98381.34
2019-03-16T20:44:26.404Z,98353.02
2019-03-16T20:46:52.962Z,98379.70
2019-03-16T20:49:20.074Z,98352.52
2019-03-16T20:51:46.782Z,98366.11
2019-03-16T20:54:13.604Z,98376.80
2019-03-16T20:56:40.684Z,98375.66
2019-03-16T20:59:07.480Z,98376.50
2019-03-16T21:01:34.113Z,98374.72
2019-03-16T21:04:00.964Z,98346.53
2019-03-16T21:06:27.766Z,98369.67
2019-03-16T21:09:03.115Z,98362.41
2019-03-16T21:11:23.133Z,98358.98
2019-03-16T21:13:49.707Z,98362.55
2019-03-16T21:16:16.415Z,98358.98
2019-03-16T21:18:43.094Z,98356.41
2019-03-16T21:21:10.150Z,98359.62
2019-03-16T21:23:36.946Z,98308.06
2019-03-16T21:26:03.867Z,98334.50
2019-03-16T21:28:30.536Z,98356.06
2019-03-16T21:30:57.227Z,98329.19
2019-03-16T21:33:29.632Z,98338.86
2019-03-16T21:35:52.608Z,98344.40
2019-03-16T21:38:19.561Z,98348.30
2019-03-16T21:40:46.664Z,98320.27
2019-03-16T21:43:13.455Z,98337.92
2019-03-16T21:45:40.136Z,98330.63
2019-03-16T21:48:06.924Z,98304.03
2019-03-16T21:50:33.730Z,98312.02
2019-03-16T21:53:00.506Z,98319.43
2019-03-16T21:55:27.117Z,98318.34
2019-03-16T21:57:53.699Z,98300.55
2019-03-16T22:00:20.782Z,98288.39
2019-03-16T22:02:47.359Z,98276.91
2019-03-16T22:05:14.174Z,98277.70
2019-03-16T22:07:40.970Z,98284.47
2019-03-16T22:10:07.907Z,98276.40
2019-03-16T22:12:34.695Z,98280.28
2019-03-16T22:15:01.502Z,98273.83
2019-03-16T22:17:28.311Z,98273.83
2019-03-16T22:19:55.094Z,98252.45
2019-03-16T22:22:21.804Z,98257.48
2019-03-16T22:24:48.508Z,98221.84
2019-03-16T22:27:15.190Z,98249.86
2019-03-16T22:29:42.172Z,98250.84
2019-03-16T22:32:09.260Z,98254.39
2019-03-16T22:34:36.038Z,98250.17
2019-03-16T22:37:02.740Z,98249.88
2019-03-16T22:39:29.785Z,98221.22
2019-03-16T22:41:56.472Z,98229.46
2019-03-16T22:44:23.449Z,98221.52
2019-03-16T22:46:50.250Z,98228.83
2019-03-16T22:49:16.920Z,98216.51
2019-03-16T22:51:43.703Z,98201.62
2019-03-16T22:54:10.517Z,98209.22
2019-03-16T22:56:37.211Z,98232.05
2019-03-16T22:59:04.001Z,98199.52
2019-03-16T23:01:30.788Z,98196.92
2019-03-16T23:04:06.301Z,98179.27
2019-03-16T23:06:26.071Z,98177.32
2019-03-16T23:08:52.901Z,98146.90
2019-03-16T23:11:20.632Z,98170.86
2019-03-16T23:13:47.395Z,98163.08
2019-03-16T23:16:14.115Z,98167.13
2019-03-16T23:18:40.899Z,98187.05
2019-03-16T23:21:07.701Z,98181.23
2019-03-16T23:23:34.471Z,98167.94
2019-03-16T23:26:01.391Z,98146.56
2019-03-16T23:28:28.095Z,98143.31
2019-03-16T23:30:54.801Z,98152.56
2019-03-16T23:33:21.589Z,98145.61
2019-03-16T23:35:48.417Z,98151.41
2019-03-16T23:38:15.089Z,98133.92
2019-03-16T23:40:42.173Z,98161.94
2019-03-16T23:43:08.959Z,98142.03
2019-03-16T23:45:35.734Z,98139.61
2019-03-16T23:48:02.540Z,98150.63
2019-03-16T23:50:29.225Z,98150.14
2019-03-16T23:52:55.921Z,98157.91
2019-03-16T23:55:22.715Z,98143.99
2019-03-16T23:57:49.550Z,98151.59
